sensor_id;sensor_type;location;lat;lon;timestamp;temperature;humidity
13389;DHT22;6764;53.250;10.410;2022-10-17T00:00:39;13.80;99.90
13389;DHT22;6764;53.250;10.410;2022-10-17T00:03:04;13.90;99.90
13389;DHT22;6764;53.250;10.410;2022-10-17T00:05:30;13.90;99.90
13389;DHT22;6764;53.250;10.410;2022-10-17T00:07:56;14.00;99.90
13389;DHT22;6764;53.250;10.410;2022-10-17T00:10:22;14.00;99.90
13389;DHT22;6764;53.250;10.410;2022-10-17T00:12:49;14.00;99.90
13389;DHT22;6764;53.250;10.410;2022-10-17T00:15:17;14.00;99.90
13389;DHT22;6764;53.250;10.410;2022-10-17T00:17:44;14.00;99.90
13389;DHT22;6764;53.250;10.410;2022-10-17T00:20:10;14.00;99.90
13389;DHT22;6764;53.250;10.410;2022-10-17T00:22:36;14.00;99.90
13389;DHT22;6764;53.250;10.410;2022-10-17T00:25:01;14.00;99.90
13389;DHT22;6764;53.250;10.410;2022-10-17T00:27:27;14.10;99.90
13389;DHT22;6764;53.250;10.410;2022-10-17T00:29:52;14.10;99.90
13389;DHT22;6764;53.250;10.410;2022-10-17T00:32:18;14.10;99.90
13389;DHT22;6764;53.250;10.410;2022-10-17T00:34:44;14.20;99.90
13389;DHT22;6764;53.250;10.410;2022-10-17T00:37:10;14.20;99.90
13389;DHT22;6764;53.250;10.410;2022-10-17T00:39:36;14.20;99.90
13389;DHT22;6764;53.250;10.410;2022-10-17T00:42:01;14.30;99.90
13389;DHT22;6764;53.250;10.410;2022-10-17T00:47:07;14.30;99.90
13389;DHT22;6764;53.250;10.410;2022-10-17T00:49:35;14.30;99.90
13389;DHT22;6764;53.250;10.410;2022-10-17T00:52:03;14.20;99.90
13389;DHT22;6764;53.250;10.410;2022-10-17T00:54:36;14.20;99.90
13389;DHT22;6764;53.250;10.410;2022-10-17T00:57:04;14.20;99.90
13389;DHT22;6764;53.250;10.410;2022-10-17T00:59:33;14.20;99.90
13389;DHT22;6764;53.250;10.410;2022-10-17T01:02:03;14.20;99.90
13389;DHT22;6764;53.250;10.410;2022-10-17T01:04:30;14.20;99.90
13389;DHT22;6764;53.250;10.410;2022-10-17T01:06:55;14.30;99.90
13389;DHT22;6764;53.250;10.410;2022-10-17T01:09:21;14.40;99.90
13389;DHT22;6764;53.250;10.410;2022-10-17T01:12:09;14.40;99.90
13389;DHT22;6764;53.250;10.410;2022-10-17T01:26:46;14.10;99.90
13389;DHT22;6764;53.250;10.410;2022-10-17T01:34:40;14.20;99.90
13389;DHT22;6764;53.250;10.410;2022-10-17T01:39:52;14.30;99.90
13389;DHT22;6764;53.250;10.410;2022-10-17T01:45:11;14.30;99.90
13389;DHT22;6764;53.250;10.410;2022-10-17T01:47:38;14.30;99.90
13389;DHT22;6764;53.250;10.410;2022-10-17T01:50:17;14.30;99.90
13389;DHT22;6764;53.250;10.410;2022-10-17T01:52:48;14.30;99.90
13389;DHT22;6764;53.250;10.410;2022-10-17T01:55:19;14.40;99.90
13389;DHT22;6764;53.250;10.410;2022-10-17T01:57:52;14.40;99.90
13389;DHT22;6764;53.250;10.410;2022-10-17T02:00:21;14.40;99.90
13389;DHT22;6764;53.250;10.410;2022-10-17T02:02:51;14.40;99.90
13389;DHT22;6764;53.250;10.410;2022-10-17T02:05:20;14.40;99.90
13389;DHT22;6764;53.250;10.410;2022-10-17T02:07:47;14.40;99.90
13389;DHT22;6764;53.250;10.410;2022-10-17T02:10:24;14.40;99.90
13389;DHT22;6764;53.250;10.410;2022-10-17T02:15:54;14.50;99.90
13389;DHT22;6764;53.250;10.410;2022-10-17T02:26:34;14.60;99.90
13389;DHT22;6764;53.250;10.410;2022-10-17T02:29:08;14.60;99.90
13389;DHT22;6764;53.250;10.410;2022-10-17T02:31:43;14.60;99.90
13389;DHT22;6764;53.250;10.410;2022-10-17T02:34:25;14.60;99.90
13389;DHT22;6764;53.250;10.410;2022-10-17T02:36:54;14.50;99.90
13389;DHT22;6764;53.250;10.410;2022-10-17T02:39:22;14.60;99.90
13389;DHT22;6764;53.250;10.410;2022-10-17T02:41:50;14.50;99.90
13389;DHT22;6764;53.250;10.410;2022-10-17T02:44:16;14.50;99.90
13389;DHT22;6764;53.250;10.410;2022-10-17T02:46:44;14.50;99.90
13389;DHT22;6764;53.250;10.410;2022-10-17T02:49:20;14.50;99.90
13389;DHT22;6764;53.250;10.410;2022-10-17T02:52:11;14.40;99.90
13389;DHT22;6764;53.250;10.410;2022-10-17T02:54:46;14.40;99.90
13389;DHT22;6764;53.250;10.410;2022-10-17T02:57:26;14.40;99.90
13389;DHT22;6764;53.250;10.410;2022-10-17T02:59:54;14.40;99.90
13389;DHT22;6764;53.250;10.410;2022-10-17T03:02:21;14.30;99.90
13389;DHT22;6764;53.250;10.410;2022-10-17T03:04:47;14.30;99.90
13389;DHT22;6764;53.250;10.410;2022-10-17T03:07:12;14.30;99.90
13389;DHT22;6764;53.250;10.410;2022-10-17T03:09:38;14.30;99.90
13389;DHT22;6764;53.250;10.410;2022-10-17T03:12:04;14.30;99.90
13389;DHT22;6764;53.250;10.410;2022-10-17T03:14:29;14.30;99.90
13389;DHT22;6764;53.250;10.410;2022-10-17T03:16:55;14.30;99.90
13389;DHT22;6764;53.250;10.410;2022-10-17T03:19:21;14.30;99.90
13389;DHT22;6764;53.250;10.410;2022-10-17T03:21:46;14.20;99.90
13389;DHT22;6764;53.250;10.410;2022-10-17T03:24:12;14.20;99.90
13389;DHT22;6764;53.250;10.410;2022-10-17T03:26:37;14.20;99.90
13389;DHT22;6764;53.250;10.410;2022-10-17T03:29:03;14.10;99.90
13389;DHT22;6764;53.250;10.410;2022-10-17T03:31:28;14.10;99.90
13389;DHT22;6764;53.250;10.410;2022-10-17T03:33:54;14.10;99.90
13389;DHT22;6764;53.250;10.410;2022-10-17T03:36:19;14.10;99.90
13389;DHT22;6764;53.250;10.410;2022-10-17T03:38:46;14.10;99.90
13389;DHT22;6764;53.250;10.410;2022-10-17T03:41:12;14.10;99.90
13389;DHT22;6764;53.250;10.410;2022-10-17T03:43:38;14.10;99.90
13389;DHT22;6764;53.250;10.410;2022-10-17T03:46:05;14.10;99.90
13389;DHT22;6764;53.250;10.410;2022-10-17T03:48:31;14.10;99.90
13389;DHT22;6764;53.250;10.410;2022-10-17T03:51:07;14.10;99.90
13389;DHT22;6764;53.250;10.410;2022-10-17T03:53:33;14.10;99.90
13389;DHT22;6764;53.250;10.410;2022-10-17T03:56:28;14.00;99.90
13389;DHT22;6764;53.250;10.410;2022-10-17T03:58:55;14.00;99.90
13389;DHT22;6764;53.250;10.410;2022-10-17T04:01:20;14.00;99.90
13389;DHT22;6764;53.250;10.410;2022-10-17T04:03:51;14.00;99.90
13389;DHT22;6764;53.250;10.410;2022-10-17T04:06:18;14.00;99.90
13389;DHT22;6764;53.250;10.410;2022-10-17T04:08:43;14.00;99.90
13389;DHT22;6764;53.250;10.410;2022-10-17T04:11:12;14.00;99.90
13389;DHT22;6764;53.250;10.410;2022-10-17T04:13:38;14.00;99.90
13389;DHT22;6764;53.250;10.410;2022-10-17T04:16:06;13.90;99.90
13389;DHT22;6764;53.250;10.410;2022-10-17T04:18:32;13.90;99.90
13389;DHT22;6764;53.250;10.410;2022-10-17T04:21:02;13.90;99.90
13389;DHT22;6764;53.250;10.410;2022-10-17T04:23:28;13.90;99.90
13389;DHT22;6764;53.250;10.410;2022-10-17T04:26:01;13.90;99.90
13389;DHT22;6764;53.250;10.410;2022-10-17T04:28:28;13.90;99.90
13389;DHT22;6764;53.250;10.410;2022-10-17T04:31:01;13.90;99.90
13389;DHT22;6764;53.250;10.410;2022-10-17T04:33:28;13.80;99.90
13389;DHT22;6764;53.250;10.410;2022-10-17T04:35:55;13.80;99.90
13389;DHT22;6764;53.250;10.410;2022-10-17T04:38:21;13.80;99.90
13389;DHT22;6764;53.250;10.410;2022-10-17T04:40:46;13.80;99.90
13389;DHT22;6764;53.250;10.410;2022-10-17T04:43:12;13.80;99.90
13389;DHT22;6764;53.250;10.410;2022-10-17T04:45:37;13.80;99.90
13389;DHT22;6764;53.250;10.410;2022-10-17T04:48:03;13.80;99.90
13389;DHT22;6764;53.250;10.410;2022-10-17T04:50:28;13.80;99.90
13389;DHT22;6764;53.250;10.410;2022-10-17T04:52:54;13.80;99.90
13389;DHT22;6764;53.250;10.410;2022-10-17T04:55:19;13.70;99.90
13389;DHT22;6764;53.250;10.410;2022-10-17T04:57:45;13.70;99.90
13389;DHT22;6764;53.250;10.410;2022-10-17T05:00:11;13.70;99.90
13389;DHT22;6764;53.250;10.410;2022-10-17T05:02:37;13.70;99.90
13389;DHT22;6764;53.250;10.410;2022-10-17T05:05:02;13.70;99.90
13389;DHT22;6764;53.250;10.410;2022-10-17T05:07:28;13.70;99.90
13389;DHT22;6764;53.250;10.410;2022-10-17T05:09:53;13.70;99.90
13389;DHT22;6764;53.250;10.410;2022-10-17T05:12:19;13.70;99.90
13389;DHT22;6764;53.250;10.410;2022-10-17T05:14:44;13.70;99.90
13389;DHT22;6764;53.250;10.410;2022-10-17T05:17:10;13.70;99.90
13389;DHT22;6764;53.250;10.410;2022-10-17T05:19:36;13.70;99.90
13389;DHT22;6764;53.250;10.410;2022-10-17T05:22:01;13.70;99.90
13389;DHT22;6764;53.250;10.410;2022-10-17T05:24:27;13.70;99.90
13389;DHT22;6764;53.250;10.410;2022-10-17T05:26:52;13.60;99.90
13389;DHT22;6764;53.250;10.410;2022-10-17T05:29:18;13.60;99.90
13389;DHT22;6764;53.250;10.410;2022-10-17T05:31:43;13.60;99.90
13389;DHT22;6764;53.250;10.410;2022-10-17T05:34:09;13.60;99.90
13389;DHT22;6764;53.250;10.410;2022-10-17T05:36:34;13.60;99.90
13389;DHT22;6764;53.250;10.410;2022-10-17T05:39:00;13.50;99.90
13389;DHT22;6764;53.250;10.410;2022-10-17T05:41:25;13.50;99.90
13389;DHT22;6764;53.250;10.410;2022-10-17T05:43:51;13.50;99.90
13389;DHT22;6764;53.250;10.410;2022-10-17T05:46:16;13.50;99.90
13389;DHT22;6764;53.250;10.410;2022-10-17T05:48:42;13.50;99.90
13389;DHT22;6764;53.250;10.410;2022-10-17T05:51:08;13.40;99.90
13389;DHT22;6764;53.250;10.410;2022-10-17T05:53:36;13.40;99.90
13389;DHT22;6764;53.250;10.410;2022-10-17T05:56:04;13.40;99.90
13389;DHT22;6764;53.250;10.410;2022-10-17T05:58:30;13.50;99.90
13389;DHT22;6764;53.250;10.410;2022-10-17T06:01:02;13.40;99.90
13389;DHT22;6764;53.250;10.410;2022-10-17T06:03:28;13.40;99.90
13389;DHT22;6764;53.250;10.410;2022-10-17T06:05:54;13.40;99.90
13389;DHT22;6764;53.250;10.410;2022-10-17T06:08:20;13.30;99.90
13389;DHT22;6764;53.250;10.410;2022-10-17T06:10:47;13.40;99.90
13389;DHT22;6764;53.250;10.410;2022-10-17T06:13:14;13.40;99.90
13389;DHT22;6764;53.250;10.410;2022-10-17T06:15:39;13.40;99.90
13389;DHT22;6764;53.250;10.410;2022-10-17T06:18:05;13.40;99.90
13389;DHT22;6764;53.250;10.410;2022-10-17T06:20:30;13.50;99.90
13389;DHT22;6764;53.250;10.410;2022-10-17T06:22:56;13.50;99.90
13389;DHT22;6764;53.250;10.410;2022-10-17T06:25:21;13.50;99.90
13389;DHT22;6764;53.250;10.410;2022-10-17T06:27:47;13.50;99.90
13389;DHT22;6764;53.250;10.410;2022-10-17T06:30:12;13.50;99.90
13389;DHT22;6764;53.250;10.410;2022-10-17T06:32:38;13.60;99.90
13389;DHT22;6764;53.250;10.410;2022-10-17T06:35:04;13.60;99.90
13389;DHT22;6764;53.250;10.410;2022-10-17T06:37:31;13.60;99.90
13389;DHT22;6764;53.250;10.410;2022-10-17T06:39:57;13.70;99.90
13389;DHT22;6764;53.250;10.410;2022-10-17T06:42:23;13.70;99.90
13389;DHT22;6764;53.250;10.410;2022-10-17T06:44:49;13.70;99.90
13389;DHT22;6764;53.250;10.410;2022-10-17T06:47:14;13.70;99.90
13389;DHT22;6764;53.250;10.410;2022-10-17T06:49:40;13.70;99.90
13389;DHT22;6764;53.250;10.410;2022-10-17T06:52:05;13.60;99.90
13389;DHT22;6764;53.250;10.410;2022-10-17T06:54:31;13.70;99.90
13389;DHT22;6764;53.250;10.410;2022-10-17T06:56:56;13.70;99.90
13389;DHT22;6764;53.250;10.410;2022-10-17T06:59:22;13.70;99.90
13389;DHT22;6764;53.250;10.410;2022-10-17T07:01:48;13.80;99.90
13389;DHT22;6764;53.250;10.410;2022-10-17T07:04:13;13.80;99.90
13389;DHT22;6764;53.250;10.410;2022-10-17T07:06:39;13.90;99.90
13389;DHT22;6764;53.250;10.410;2022-10-17T07:09:04;14.00;99.90
13389;DHT22;6764;53.250;10.410;2022-10-17T07:11:32;14.00;99.90
13389;DHT22;6764;53.250;10.410;2022-10-17T07:13:58;14.00;99.90
13389;DHT22;6764;53.250;10.410;2022-10-17T07:16:24;14.10;99.90
13389;DHT22;6764;53.250;10.410;2022-10-17T07:18:50;14.10;99.90
13389;DHT22;6764;53.250;10.410;2022-10-17T07:21:16;14.20;99.90
13389;DHT22;6764;53.250;10.410;2022-10-17T07:23:41;14.30;99.90
13389;DHT22;6764;53.250;10.410;2022-10-17T07:26:10;14.40;99.90
13389;DHT22;6764;53.250;10.410;2022-10-17T07:28:37;14.40;99.90
13389;DHT22;6764;53.250;10.410;2022-10-17T07:31:08;14.50;99.90
13389;DHT22;6764;53.250;10.410;2022-10-17T07:33:34;14.60;99.90
13389;DHT22;6764;53.250;10.410;2022-10-17T07:36:00;14.70;99.90
13389;DHT22;6764;53.250;10.410;2022-10-17T07:38:29;14.90;99.90
13389;DHT22;6764;53.250;10.410;2022-10-17T07:41:00;14.90;99.90
13389;DHT22;6764;53.250;10.410;2022-10-17T07:43:26;15.00;99.90
13389;DHT22;6764;53.250;10.410;2022-10-17T07:45:53;15.20;99.90
13389;DHT22;6764;53.250;10.410;2022-10-17T07:48:20;15.30;99.90
13389;DHT22;6764;53.250;10.410;2022-10-17T07:50:46;15.30;99.90
13389;DHT22;6764;53.250;10.410;2022-10-17T07:53:12;15.40;99.90
13389;DHT22;6764;53.250;10.410;2022-10-17T07:55:39;15.50;99.90
13389;DHT22;6764;53.250;10.410;2022-10-17T07:58:04;15.50;99.90
13389;DHT22;6764;53.250;10.410;2022-10-17T08:00:30;15.50;99.90
13389;DHT22;6764;53.250;10.410;2022-10-17T08:02:56;15.60;99.90
13389;DHT22;6764;53.250;10.410;2022-10-17T08:05:21;15.80;99.90
13389;DHT22;6764;53.250;10.410;2022-10-17T08:07:47;15.90;99.90
13389;DHT22;6764;53.250;10.410;2022-10-17T08:10:13;16.10;99.90
13389;DHT22;6764;53.250;10.410;2022-10-17T08:12:39;16.10;99.90
13389;DHT22;6764;53.250;10.410;2022-10-17T08:15:06;16.20;99.90
13389;DHT22;6764;53.250;10.410;2022-10-17T08:17:34;16.30;99.90
13389;DHT22;6764;53.250;10.410;2022-10-17T08:20:00;16.50;99.90
13389;DHT22;6764;53.250;10.410;2022-10-17T08:22:26;16.90;99.90
13389;DHT22;6764;53.250;10.410;2022-10-17T08:24:52;17.10;99.90
13389;DHT22;6764;53.250;10.410;2022-10-17T08:27:17;17.40;99.90
13389;DHT22;6764;53.250;10.410;2022-10-17T08:29:49;17.50;99.90
13389;DHT22;6764;53.250;10.410;2022-10-17T08:32:18;17.60;99.90
13389;DHT22;6764;53.250;10.410;2022-10-17T08:34:44;17.70;99.90
13389;DHT22;6764;53.250;10.410;2022-10-17T08:37:09;17.80;99.90
13389;DHT22;6764;53.250;10.410;2022-10-17T08:39:38;18.00;99.90
13389;DHT22;6764;53.250;10.410;2022-10-17T08:42:18;18.00;99.90
13389;DHT22;6764;53.250;10.410;2022-10-17T08:44:59;18.10;99.90
13389;DHT22;6764;53.250;10.410;2022-10-17T08:47:38;18.30;99.90
13389;DHT22;6764;53.250;10.410;2022-10-17T08:50:11;18.40;99.90
13389;DHT22;6764;53.250;10.410;2022-10-17T08:52:46;18.40;99.90
13389;DHT22;6764;53.250;10.410;2022-10-17T08:55:35;18.40;99.90
13389;DHT22;6764;53.250;10.410;2022-10-17T08:58:00;18.50;99.90
13389;DHT22;6764;53.250;10.410;2022-10-17T09:00:29;18.60;99.90
13389;DHT22;6764;53.250;10.410;2022-10-17T09:05:54;18.60;99.90
13389;DHT22;6764;53.250;10.410;2022-10-17T09:16:34;18.80;99.90
13389;DHT22;6764;53.250;10.410;2022-10-17T09:19:21;18.80;99.90
13389;DHT22;6764;53.250;10.410;2022-10-17T09:22:09;18.70;99.90
13389;DHT22;6764;53.250;10.410;2022-10-17T09:24:46;18.60;99.90
13389;DHT22;6764;53.250;10.410;2022-10-17T09:27:23;18.70;99.90
13389;DHT22;6764;53.250;10.410;2022-10-17T09:29:54;18.70;99.90
13389;DHT22;6764;53.250;10.410;2022-10-17T09:32:25;18.80;99.90
13389;DHT22;6764;53.250;10.410;2022-10-17T09:34:52;18.90;99.90
13389;DHT22;6764;53.250;10.410;2022-10-17T09:37:18;19.10;99.90
13389;DHT22;6764;53.250;10.410;2022-10-17T09:39:47;19.20;99.90
13389;DHT22;6764;53.250;10.410;2022-10-17T09:42:15;19.40;99.90
13389;DHT22;6764;53.250;10.410;2022-10-17T09:45:13;19.70;99.90
13389;DHT22;6764;53.250;10.410;2022-10-17T09:47:45;20.10;99.90
13389;DHT22;6764;53.250;10.410;2022-10-17T09:50:20;20.60;99.90
13389;DHT22;6764;53.250;10.410;2022-10-17T09:52:47;21.10;99.90
13389;DHT22;6764;53.250;10.410;2022-10-17T09:55:32;21.60;99.90
13389;DHT22;6764;53.250;10.410;2022-10-17T09:58:04;22.10;99.90
13389;DHT22;6764;53.250;10.410;2022-10-17T10:00:33;22.70;99.90
13389;DHT22;6764;53.250;10.410;2022-10-17T10:05:40;23.20;99.90
13389;DHT22;6764;53.250;10.410;2022-10-17T10:08:16;23.50;99.90
13389;DHT22;6764;53.250;10.410;2022-10-17T10:10:43;24.10;99.90
13389;DHT22;6764;53.250;10.410;2022-10-17T10:15:40;24.90;99.90
13389;DHT22;6764;53.250;10.410;2022-10-17T10:18:28;24.80;99.90
13389;DHT22;6764;53.250;10.410;2022-10-17T10:21:16;24.70;99.90
13389;DHT22;6764;53.250;10.410;2022-10-17T10:23:44;24.60;99.90
13389;DHT22;6764;53.250;10.410;2022-10-17T10:26:29;24.90;99.90
13389;DHT22;6764;53.250;10.410;2022-10-17T10:29:02;24.80;99.90
13389;DHT22;6764;53.250;10.410;2022-10-17T10:31:34;23.90;99.90
13389;DHT22;6764;53.250;10.410;2022-10-17T10:34:12;23.70;99.90
13389;DHT22;6764;53.250;10.410;2022-10-17T10:36:51;23.60;99.90
13389;DHT22;6764;53.250;10.410;2022-10-17T10:42:00;23.30;99.90
13389;DHT22;6764;53.250;10.410;2022-10-17T10:44:28;23.20;99.90
13389;DHT22;6764;53.250;10.410;2022-10-17T10:49:40;23.30;99.90
13389;DHT22;6764;53.250;10.410;2022-10-17T10:52:10;23.30;99.90
13389;DHT22;6764;53.250;10.410;2022-10-17T10:54:45;23.40;99.90
13389;DHT22;6764;53.250;10.410;2022-10-17T10:57:16;23.60;99.90
13389;DHT22;6764;53.250;10.410;2022-10-17T10:59:59;23.60;99.90
13389;DHT22;6764;53.250;10.410;2022-10-17T11:02:39;23.60;99.90
13389;DHT22;6764;53.250;10.410;2022-10-17T11:07:52;23.50;99.90
13389;DHT22;6764;53.250;10.410;2022-10-17T11:13:20;22.90;99.90
13389;DHT22;6764;53.250;10.410;2022-10-17T11:18:25;22.50;99.90
13389;DHT22;6764;53.250;10.410;2022-10-17T11:20:59;22.50;99.90
13389;DHT22;6764;53.250;10.410;2022-10-17T11:26:28;22.30;99.90
13389;DHT22;6764;53.250;10.410;2022-10-17T11:28:57;22.10;99.90
13389;DHT22;6764;53.250;10.410;2022-10-17T11:31:29;22.10;99.90
13389;DHT22;6764;53.250;10.410;2022-10-17T11:34:23;22.20;99.90
13389;DHT22;6764;53.250;10.410;2022-10-17T11:36:53;22.40;99.90
13389;DHT22;6764;53.250;10.410;2022-10-17T11:39:44;22.50;99.90
13389;DHT22;6764;53.250;10.410;2022-10-17T11:42:51;22.50;99.90
13389;DHT22;6764;53.250;10.410;2022-10-17T11:45:19;22.60;99.90
13389;DHT22;6764;53.250;10.410;2022-10-17T11:47:49;22.60;99.90
13389;DHT22;6764;53.250;10.410;2022-10-17T11:50:21;22.60;99.90
13389;DHT22;6764;53.250;10.410;2022-10-17T11:52:55;22.50;99.90
13389;DHT22;6764;53.250;10.410;2022-10-17T11:55:25;22.50;99.90
13389;DHT22;6764;53.250;10.410;2022-10-17T11:58:23;22.40;99.90
13389;DHT22;6764;53.250;10.410;2022-10-17T12:01:22;22.40;99.90
13389;DHT22;6764;53.250;10.410;2022-10-17T12:09:18;22.40;99.90
13389;DHT22;6764;53.250;10.410;2022-10-17T12:11:57;22.40;99.90
13389;DHT22;6764;53.250;10.410;2022-10-17T12:14:43;22.20;99.90
13389;DHT22;6764;53.250;10.410;2022-10-17T12:17:28;22.10;99.90
13389;DHT22;6764;53.250;10.410;2022-10-17T12:26:24;22.00;99.90
13389;DHT22;6764;53.250;10.410;2022-10-17T12:28:30;21.90;99.90
13389;DHT22;6764;53.250;10.410;2022-10-17T12:33:37;21.80;99.90
13389;DHT22;6764;53.250;10.410;2022-10-17T12:49:47;22.10;99.90
13389;DHT22;6764;53.250;10.410;2022-10-17T12:54:47;22.20;99.90
13389;DHT22;6764;53.250;10.410;2022-10-17T13:02:52;22.30;99.90
13389;DHT22;6764;53.250;10.410;2022-10-17T13:05:25;22.30;99.90
13389;DHT22;6764;53.250;10.410;2022-10-17T13:07:52;22.20;99.90
13389;DHT22;6764;53.250;10.410;2022-10-17T13:10:27;22.20;99.90
13389;DHT22;6764;53.250;10.410;2022-10-17T13:13:22;22.10;99.90
13389;DHT22;6764;53.250;10.410;2022-10-17T13:15:51;22.10;99.90
13389;DHT22;6764;53.250;10.410;2022-10-17T13:18:22;22.00;99.90
13389;DHT22;6764;53.250;10.410;2022-10-17T13:21:04;21.90;99.90
13389;DHT22;6764;53.250;10.410;2022-10-17T13:23:35;21.80;99.90
13389;DHT22;6764;53.250;10.410;2022-10-17T13:26:22;21.60;99.90
13389;DHT22;6764;53.250;10.410;2022-10-17T13:29:10;21.60;99.90
13389;DHT22;6764;53.250;10.410;2022-10-17T13:31:39;21.50;99.90
13389;DHT22;6764;53.250;10.410;2022-10-17T13:34:19;21.40;99.90
13389;DHT22;6764;53.250;10.410;2022-10-17T13:36:47;21.30;99.90
13389;DHT22;6764;53.250;10.410;2022-10-17T13:39:17;21.40;99.90
13389;DHT22;6764;53.250;10.410;2022-10-17T13:41:44;21.40;99.90
13389;DHT22;6764;53.250;10.410;2022-10-17T13:44:18;21.30;99.90
13389;DHT22;6764;53.250;10.410;2022-10-17T13:46:44;21.30;99.90
13389;DHT22;6764;53.250;10.410;2022-10-17T13:49:16;21.20;99.90
13389;DHT22;6764;53.250;10.410;2022-10-17T13:51:47;21.10;99.90
13389;DHT22;6764;53.250;10.410;2022-10-17T13:54:28;21.10;99.90
13389;DHT22;6764;53.250;10.410;2022-10-17T13:56:56;21.10;99.90
13389;DHT22;6764;53.250;10.410;2022-10-17T13:59:25;21.00;99.90
13389;DHT22;6764;53.250;10.410;2022-10-17T14:01:53;21.00;99.90
13389;DHT22;6764;53.250;10.410;2022-10-17T14:04:19;20.90;99.90
13389;DHT22;6764;53.250;10.410;2022-10-17T14:06:46;20.90;99.90
13389;DHT22;6764;53.250;10.410;2022-10-17T14:09:25;20.80;99.90
13389;DHT22;6764;53.250;10.410;2022-10-17T14:12:07;20.80;99.90
13389;DHT22;6764;53.250;10.410;2022-10-17T14:14:35;20.80;99.90
13389;DHT22;6764;53.250;10.410;2022-10-17T14:17:01;20.80;99.90
13389;DHT22;6764;53.250;10.410;2022-10-17T14:19:30;20.70;99.90
13389;DHT22;6764;53.250;10.410;2022-10-17T14:22:25;20.70;99.90
13389;DHT22;6764;53.250;10.410;2022-10-17T14:24:51;20.70;99.90
13389;DHT22;6764;53.250;10.410;2022-10-17T14:27:51;20.60;99.90
13389;DHT22;6764;53.250;10.410;2022-10-17T14:32:57;20.70;99.90
13389;DHT22;6764;53.250;10.410;2022-10-17T14:35:23;20.60;99.90
13389;DHT22;6764;53.250;10.410;2022-10-17T14:37:50;20.60;99.90
13389;DHT22;6764;53.250;10.410;2022-10-17T14:40:19;20.60;99.90
13389;DHT22;6764;53.250;10.410;2022-10-17T14:42:46;20.60;99.90
13389;DHT22;6764;53.250;10.410;2022-10-17T14:45:24;20.70;99.90
13389;DHT22;6764;53.250;10.410;2022-10-17T14:47:52;20.70;99.90
13389;DHT22;6764;53.250;10.410;2022-10-17T14:50:24;20.70;99.90
13389;DHT22;6764;53.250;10.410;2022-10-17T14:53:32;20.70;99.90
13389;DHT22;6764;53.250;10.410;2022-10-17T14:55:56;20.80;99.90
13389;DHT22;6764;53.250;10.410;2022-10-17T14:58:30;20.80;99.90
13389;DHT22;6764;53.250;10.410;2022-10-17T15:00:57;20.80;99.90
13389;DHT22;6764;53.250;10.410;2022-10-17T15:03:23;20.70;99.90
13389;DHT22;6764;53.250;10.410;2022-10-17T15:05:52;20.60;99.90
13389;DHT22;6764;53.250;10.410;2022-10-17T15:08:20;20.60;99.90
13389;DHT22;6764;53.250;10.410;2022-10-17T15:10:47;20.60;99.90
13389;DHT22;6764;53.250;10.410;2022-10-17T15:13:13;20.50;99.90
13389;DHT22;6764;53.250;10.410;2022-10-17T15:15:39;20.40;99.90
13389;DHT22;6764;53.250;10.410;2022-10-17T15:18:06;20.40;99.90
13389;DHT22;6764;53.250;10.410;2022-10-17T15:20:32;20.40;99.90
13389;DHT22;6764;53.250;10.410;2022-10-17T15:22:59;20.40;99.90
13389;DHT22;6764;53.250;10.410;2022-10-17T15:25:27;20.30;99.90
13389;DHT22;6764;53.250;10.410;2022-10-17T15:27:53;20.30;99.90
13389;DHT22;6764;53.250;10.410;2022-10-17T15:30:27;20.20;99.90
13389;DHT22;6764;53.250;10.410;2022-10-17T15:32:53;20.10;99.90
13389;DHT22;6764;53.250;10.410;2022-10-17T15:35:20;20.00;99.90
13389;DHT22;6764;53.250;10.410;2022-10-17T15:37:46;19.90;99.90
13389;DHT22;6764;53.250;10.410;2022-10-17T15:40:20;19.90;99.90
13389;DHT22;6764;53.250;10.410;2022-10-17T15:42:47;19.80;99.90
13389;DHT22;6764;53.250;10.410;2022-10-17T15:45:15;19.70;99.90
13389;DHT22;6764;53.250;10.410;2022-10-17T15:47:43;19.70;99.90
13389;DHT22;6764;53.250;10.410;2022-10-17T15:50:16;19.70;99.90
13389;DHT22;6764;53.250;10.410;2022-10-17T15:52:42;19.60;99.90
13389;DHT22;6764;53.250;10.410;2022-10-17T15:55:09;19.50;99.90
13389;DHT22;6764;53.250;10.410;2022-10-17T15:57:38;19.50;99.90
13389;DHT22;6764;53.250;10.410;2022-10-17T16:00:07;19.40;99.90
13389;DHT22;6764;53.250;10.410;2022-10-17T16:02:36;19.40;99.90
13389;DHT22;6764;53.250;10.410;2022-10-17T16:05:04;19.30;99.90
13389;DHT22;6764;53.250;10.410;2022-10-17T16:07:30;19.30;99.90
13389;DHT22;6764;53.250;10.410;2022-10-17T16:09:56;19.20;99.90
13389;DHT22;6764;53.250;10.410;2022-10-17T16:12:26;19.20;99.90
13389;DHT22;6764;53.250;10.410;2022-10-17T16:14:52;19.20;99.90
13389;DHT22;6764;53.250;10.410;2022-10-17T16:17:18;19.10;99.90
13389;DHT22;6764;53.250;10.410;2022-10-17T16:19:43;19.10;99.90
13389;DHT22;6764;53.250;10.410;2022-10-17T16:22:32;19.00;99.90
13389;DHT22;6764;53.250;10.410;2022-10-17T16:25:02;19.00;99.90
13389;DHT22;6764;53.250;10.410;2022-10-17T16:27:35;18.90;99.90
13389;DHT22;6764;53.250;10.410;2022-10-17T16:30:02;18.90;99.90
13389;DHT22;6764;53.250;10.410;2022-10-17T16:32:27;18.90;99.90
13389;DHT22;6764;53.250;10.410;2022-10-17T16:34:53;18.90;99.90
13389;DHT22;6764;53.250;10.410;2022-10-17T16:37:18;18.80;99.90
13389;DHT22;6764;53.250;10.410;2022-10-17T16:39:44;18.80;99.90
13389;DHT22;6764;53.250;10.410;2022-10-17T16:42:13;18.80;99.90
13389;DHT22;6764;53.250;10.410;2022-10-17T16:44:39;18.80;99.90
13389;DHT22;6764;53.250;10.410;2022-10-17T16:47:04;18.80;99.90
13389;DHT22;6764;53.250;10.410;2022-10-17T16:49:30;18.70;99.90
13389;DHT22;6764;53.250;10.410;2022-10-17T16:51:55;18.70;99.90
13389;DHT22;6764;53.250;10.410;2022-10-17T16:54:21;18.70;99.90
13389;DHT22;6764;53.250;10.410;2022-10-17T16:56:46;18.70;99.90
13389;DHT22;6764;53.250;10.410;2022-10-17T16:59:13;18.70;99.90
13389;DHT22;6764;53.250;10.410;2022-10-17T17:01:38;18.70;99.90
13389;DHT22;6764;53.250;10.410;2022-10-17T17:04:04;18.60;99.90
13389;DHT22;6764;53.250;10.410;2022-10-17T17:06:30;18.60;99.90
13389;DHT22;6764;53.250;10.410;2022-10-17T17:08:56;18.60;99.90
13389;DHT22;6764;53.250;10.410;2022-10-17T17:11:24;18.60;99.90
13389;DHT22;6764;53.250;10.410;2022-10-17T17:13:51;18.60;99.90
13389;DHT22;6764;53.250;10.410;2022-10-17T17:16:19;18.60;99.90
13389;DHT22;6764;53.250;10.410;2022-10-17T17:18:46;18.50;99.90
13389;DHT22;6764;53.250;10.410;2022-10-17T17:21:13;18.50;99.90
13389;DHT22;6764;53.250;10.410;2022-10-17T17:23:40;18.50;99.90
13389;DHT22;6764;53.250;10.410;2022-10-17T17:26:14;18.50;99.90
13389;DHT22;6764;53.250;10.410;2022-10-17T17:28:40;18.50;99.90
13389;DHT22;6764;53.250;10.410;2022-10-17T17:31:08;18.40;99.90
13389;DHT22;6764;53.250;10.410;2022-10-17T17:33:36;18.40;99.90